Ralph, South Dakota
Current Conditions -  °F | °C
As of 2:53 AM on Friday 24 Oct 2014 (Local Time) from KHEI Reporting Station
Clear Clear  
Wind Chill: 45°   Ceiling: Unl
Heat Index: 45°   Visibility: 10mi
Dew Point: 29°   Wind: 3mph
Humidity: 53%   Direction: 320°NW
Pressure: 29.88"   Gusts: NA
Location:  45.77°N, 103.07°W
Report Text: KHEI 240853Z AUTO 32003KT 10SM CLR 07/M02 A2988 RMK AO2 SLP113 T00721017 55002
Loading
Personal Weather Stations






























Interactive Weather Map
Tropical Storm Tracking
New forecast layout! Learn more

10-Day Weather Forecast

Advertisements
Track Severe Weather on mobile